Epiphany, South Dakota
Current Conditions -  °F | °C
As of 10:10 PM on Sunday 21 Dec 2014 (Local Time) from KMDS Reporting Station
Overcast Overcast  
Wind Chill: 26°   Ceiling: 400
Heat Index: 36°   Visibility: 10mi
Dew Point: 36°   Wind: 15mph
Humidity: 100%   Direction: 170°S
Pressure: 29.51"   Gusts: NA
Location:  43.8924°N, 97.5502°W
Report Text: KMDS 220410Z AUTO 17013KT 10SM OVC004 02/02 A2951 RMK AO2
Loading
Personal Weather Stations






























Interactive Weather Map New forecast layout! Learn more

10-Day Weather Forecast

Advertisements
Track Severe Weather on mobile